Time;durP1;ratioP1;P1;durP2;ratioP2;P2;SDS_P1;SDS_P2;PMS_P1;PMS_P2;Temp;Humidity;BMP_temperature;BMP_pressure;BME280_temperature;BME280_humidity;BME280_pressure;Samples;Min_cycle;Max_cycle;Signal;HPM_P1;HPM_P2
2022/09/01 00:02:47;;;;;;;6.33;3.00;;;17.10;99.90;;;;;;10468939;28;20298;-70
2022/09/01 00:07:51;;;;;;;5.57;3.07;;;17.00;99.90;;;;;;10478333;28;20249;-69
2022/09/01 00:12:52;;;;;;;3.33;3.03;;;16.90;99.90;;;;;;10476738;28;20225;-70
2022/09/01 00:17:53;;;;;;;4.53;3.00;;;16.80;99.90;;;;;;10475622;28;20229;-69
2022/09/01 00:22:54;;;;;;;3.20;2.90;;;16.70;99.90;;;;;;10482907;28;20214;-69
2022/09/01 00:27:59;;;;;;;2.80;2.60;;;16.70;99.90;;;;;;10473749;28;20263;-69
2022/09/01 00:32:59;;;;;;;4.50;2.80;;;16.60;99.90;;;;;;10466632;28;20219;-70
2022/09/01 00:38:00;;;;;;;4.47;2.77;;;16.60;99.90;;;;;;10480332;28;20232;-70
2022/09/01 00:43:09;;;;;;;2.83;2.50;;;16.50;99.90;;;;;;10470485;28;20289;-69
2022/09/01 00:48:10;;;;;;;2.70;2.50;;;16.50;99.90;;;;;;10479852;28;20237;-69
2022/09/01 00:53:11;;;;;;;6.00;2.90;;;16.40;99.90;;;;;;10475280;28;20223;-69
2022/09/01 00:58:11;;;;;;;2.70;2.50;;;16.40;99.90;;;;;;10479315;28;20799;-69
2022/09/01 01:03:13;;;;;;;3.23;2.60;;;16.30;99.90;;;;;;10475261;28;20215;-70
2022/09/01 01:08:18;;;;;;;4.37;2.67;;;16.30;99.90;;;;;;10476764;28;20225;-70
2022/09/01 01:13:19;;;;;;;4.40;2.80;;;16.20;99.90;;;;;;10476006;28;20219;-70
2022/09/01 01:18:20;;;;;;;4.67;2.57;;;16.20;99.90;;;;;;10476890;28;20231;-70
2022/09/01 01:23:53;;;;;;;3.40;2.63;;;16.20;99.90;;;;;;10475491;28;20240;-69
2022/09/01 01:28:54;;;;;;;4.03;2.50;;;16.10;99.90;;;;;;10462708;28;20215;-69
2022/09/01 01:33:55;;;;;;;3.20;2.60;;;16.10;99.90;;;;;;10477207;28;20784;-69
2022/09/01 01:39:00;;;;;;;2.77;2.50;;;16.00;99.90;;;;;;10463449;28;20311;-69
2022/09/01 01:44:03;;;;;;;2.73;2.53;;;16.00;99.90;;;;;;10478616;28;20808;-69
2022/09/01 01:49:03;;;;;;;3.37;2.57;;;16.00;99.90;;;;;;10474590;28;20222;-69
2022/09/01 01:54:06;;;;;;;2.97;2.77;;;15.90;99.90;;;;;;10472197;28;20691;-69
2022/09/01 01:59:10;;;;;;;3.27;2.60;;;15.90;99.90;;;;;;10475896;28;20225;-69
2022/09/01 02:04:13;;;;;;;4.00;2.50;;;15.90;99.90;;;;;;10472223;28;20247;-70
2022/09/01 02:09:17;;;;;;;7.37;3.00;;;15.90;99.90;;;;;;10476139;28;20214;-70
2022/09/01 02:14:19;;;;;;;4.00;2.60;;;15.80;99.90;;;;;;10485531;28;20603;-69
2022/09/01 02:19:19;;;;;;;4.77;2.70;;;15.80;99.90;;;;;;10472279;28;20613;-69
2022/09/01 02:24:22;;;;;;;5.50;2.60;;;15.70;99.90;;;;;;10469073;28;20221;-70
2022/09/01 02:29:25;;;;;;;2.50;2.20;;;15.70;99.90;;;;;;10474121;28;20223;-70
2022/09/01 02:34:27;;;;;;;4.00;2.30;;;15.70;99.90;;;;;;10473125;28;20249;-70
2022/09/01 02:39:33;;;;;;;2.57;2.33;;;15.60;99.90;;;;;;10472948;28;20223;-70
2022/09/01 02:44:34;;;;;;;5.20;2.60;;;15.60;99.90;;;;;;10473836;28;20212;-69
2022/09/01 02:49:34;;;;;;;3.17;2.27;;;15.50;99.90;;;;;;10472358;28;20737;-69
2022/09/01 02:54:35;;;;;;;2.60;2.40;;;15.50;99.90;;;;;;10473028;28;20213;-70
2022/09/01 02:59:37;;;;;;;4.17;2.50;;;15.40;99.90;;;;;;10470091;28;20691;-70
2022/09/01 03:04:37;;;;;;;3.43;2.30;;;15.40;99.90;;;;;;10474259;28;20220;-70
2022/09/01 03:09:40;;;;;;;3.87;2.37;;;15.40;99.90;;;;;;10469797;28;20684;-69
2022/09/01 03:14:40;;;;;;;3.73;2.70;;;15.40;99.90;;;;;;10474454;28;20620;-69
2022/09/01 03:19:43;;;;;;;3.47;2.43;;;15.30;99.90;;;;;;10470422;28;20254;-69
2022/09/01 03:24:43;;;;;;;5.20;2.47;;;15.30;99.90;;;;;;10476462;28;20220;-69
2022/09/01 03:29:47;;;;;;;7.00;2.40;;;15.30;99.90;;;;;;10474208;28;20228;-69
2022/09/01 03:34:47;;;;;;;3.63;2.40;;;15.30;99.90;;;;;;10469307;28;20249;-70
2022/09/01 03:39:48;;;;;;;4.87;2.20;;;15.20;99.90;;;;;;10477140;28;20260;-69
2022/09/01 03:44:52;;;;;;;2.73;2.50;;;15.20;99.90;;;;;;10475262;28;20216;-70
2022/09/01 03:49:55;;;;;;;4.27;2.43;;;15.20;99.90;;;;;;10474400;28;20599;-69
2022/09/01 03:54:58;;;;;;;2.87;2.37;;;15.20;99.90;;;;;;10467024;28;20556;-69
2022/09/01 03:59:59;;;;;;;4.13;2.40;;;15.20;99.90;;;;;;10481833;28;20220;-68
2022/09/01 04:05:00;;;;;;;3.30;2.53;;;15.10;99.90;;;;;;10474561;28;20354;-70
2022/09/01 04:10:00;;;;;;;3.17;2.70;;;15.10;99.90;;;;;;10480750;28;20317;-69
2022/09/01 04:15:01;;;;;;;4.60;2.53;;;15.00;99.90;;;;;;10475083;28;20291;-70
2022/09/01 04:20:08;;;;;;;4.60;2.50;;;15.00;99.90;;;;;;10468623;28;20701;-69
2022/09/01 04:25:08;;;;;;;4.47;2.70;;;15.10;99.90;;;;;;10495431;28;20274;-69
2022/09/01 04:30:09;;;;;;;3.90;3.13;;;15.10;99.90;;;;;;10475491;28;20246;-69
2022/09/01 04:35:15;;;;;;;4.13;2.83;;;15.20;99.90;;;;;;10474044;28;20186;-69
2022/09/01 04:40:16;;;;;;;3.33;2.70;;;15.30;99.90;;;;;;10476650;28;20210;-70
2022/09/01 04:45:19;;;;;;;5.47;2.57;;;15.40;99.90;;;;;;10472353;28;20564;-69
2022/09/01 04:50:20;;;;;;;3.57;2.30;;;15.50;99.90;;;;;;10477267;28;20209;-69
2022/09/01 04:55:23;;;;;;;4.13;2.50;;;15.50;99.90;;;;;;10481025;28;20186;-70
2022/09/01 05:00:30;;;;;;;5.80;2.40;;;15.60;99.90;;;;;;10475550;28;20343;-70
2022/09/01 05:05:41;;;;;;;2.53;2.30;;;15.70;99.90;;;;;;10473271;28;20219;-70
2022/09/01 05:10:45;;;;;;;4.03;2.10;;;15.80;99.90;;;;;;10474313;28;20221;-69
2022/09/01 05:15:46;;;;;;;4.03;2.67;;;15.90;99.90;;;;;;10479271;28;20295;-70
2022/09/01 05:20:47;;;;;;;5.53;2.70;;;15.90;99.90;;;;;;10473687;28;20310;-70
2022/09/01 05:25:50;;;;;;;9.57;3.57;;;16.10;99.90;;;;;;10478677;28;20764;-69
2022/09/01 05:30:53;;;;;;;6.73;2.30;;;16.20;99.90;;;;;;10472288;28;20323;-70
2022/09/01 05:35:56;;;;;;;5.87;2.30;;;16.20;99.90;;;;;;10471303;28;20269;-70
2022/09/01 05:41:02;;;;;;;3.10;2.50;;;16.20;99.90;;;;;;10463661;28;20228;-69
2022/09/01 05:46:07;;;;;;;4.77;3.10;;;16.20;99.90;;;;;;10477827;28;20250;-70
2022/09/01 05:51:10;;;;;;;4.00;2.20;;;16.30;99.90;;;;;;10472899;28;20774;-70
2022/09/01 05:56:12;;;;;;;4.13;2.30;;;16.30;99.90;;;;;;10475280;28;20217;-70
2022/09/01 06:01:21;;;;;;;3.53;2.10;;;16.80;99.90;;;;;;10472276;28;20225;-70
2022/09/01 06:06:45;;;;;;;5.40;2.60;;;17.20;99.90;;;;;;10474740;28;20222;-70
2022/09/01 06:11:46;;;;;;;2.73;2.20;;;17.50;99.90;;;;;;10471239;28;20778;-70
2022/09/01 06:16:47;;;;;;;3.97;2.07;;;17.70;99.90;;;;;;10475646;28;20230;-70
2022/09/01 06:21:47;;;;;;;5.47;2.53;;;17.50;99.90;;;;;;10470905;28;20325;-70
2022/09/01 06:26:48;;;;;;;5.13;2.63;;;17.50;99.90;;;;;;10476671;28;20227;-71
2022/09/01 06:31:51;;;;;;;3.43;2.20;;;17.50;99.90;;;;;;10470541;28;20221;-70
2022/09/01 06:36:52;;;;;;;3.93;2.57;;;17.60;99.90;;;;;;10476788;28;20221;-70
2022/09/01 06:41:53;;;;;;;6.50;2.67;;;17.70;99.90;;;;;;10471159;28;20225;-70
2022/09/01 06:46:54;;;;;;;4.90;2.33;;;17.90;99.90;;;;;;10468744;28;20268;-70
2022/09/01 06:51:54;;;;;;;3.73;2.17;;;18.20;99.90;;;;;;10468950;28;20256;-70
2022/09/01 06:56:56;;;;;;;6.67;2.20;;;18.50;99.90;;;;;;10475598;28;20237;-70
2022/09/01 07:02:00;;;;;;;4.13;1.80;;;19.00;99.90;;;;;;10460041;28;20817;-69
2022/09/01 07:07:06;;;;;;;3.63;2.13;;;19.60;99.90;;;;;;10476013;28;20258;-71
2022/09/01 07:12:07;;;;;;;4.83;2.20;;;20.00;99.90;;;;;;10470383;28;20219;-70
2022/09/01 07:17:12;;;;;;;6.47;1.70;;;20.50;99.80;;;;;;10469342;28;20292;-71
2022/09/01 07:22:16;;;;;;;4.43;1.80;;;20.90;98.40;;;;;;10476595;28;20639;-71
2022/09/01 07:27:18;;;;;;;2.27;1.70;;;21.00;97.60;;;;;;10473437;28;20262;-70
2022/09/01 07:32:19;;;;;;;3.20;1.80;;;21.10;97.00;;;;;;10469363;28;20818;-71
2022/09/01 07:37:21;;;;;;;2.67;1.83;;;21.60;96.30;;;;;;10471791;28;20231;-71
2022/09/01 07:42:23;;;;;;;3.90;1.83;;;21.70;95.90;;;;;;10471900;28;20226;-71
2022/09/01 07:47:23;;;;;;;3.47;2.23;;;24.00;91.20;;;;;;10475512;28;20579;-70
2022/09/01 07:52:24;;;;;;;3.50;1.93;;;24.60;85.40;;;;;;10471796;28;20315;-70
2022/09/01 07:57:25;;;;;;;4.43;2.20;;;24.10;86.00;;;;;;10471560;28;20220;-70
2022/09/01 08:02:26;;;;;;;9.63;2.60;;;24.30;84.40;;;;;;10472206;28;20222;-71
2022/09/01 08:07:27;;;;;;;5.10;2.10;;;24.30;84.10;;;;;;10471519;28;20228;-71
2022/09/01 08:12:28;;;;;;;2.53;2.10;;;24.00;84.70;;;;;;10479188;28;20255;-72
2022/09/01 08:17:28;;;;;;;6.17;1.90;;;24.40;82.10;;;;;;10469350;28;20228;-71
2022/09/01 08:22:30;;;;;;;6.27;2.03;;;24.70;80.80;;;;;;10466241;28;20717;-71
2022/09/01 08:27:35;;;;;;;3.93;2.00;;;24.50;80.50;;;;;;10473800;28;20249;-71
2022/09/01 08:32:36;;;;;;;6.27;1.80;;;24.30;81.80;;;;;;10479496;28;20267;-70
2022/09/01 08:37:41;;;;;;;3.87;2.43;;;24.30;80.80;;;;;;10476904;28;20227;-71
2022/09/01 08:42:55;;;;;;;4.70;2.37;;;24.20;80.90;;;;;;10474787;28;20238;-69
2022/09/01 08:48:01;;;;;;;4.93;2.10;;;23.80;82.00;;;;;;10481342;28;20228;-71
2022/09/01 08:53:32;;;;;;;4.33;2.00;;;23.70;82.60;;;;;;10466105;28;20219;-72
2022/09/01 08:58:33;;;;;;;5.03;2.47;;;23.90;82.40;;;;;;10461573;28;20597;-71
2022/09/01 09:04:08;;;;;;;4.87;2.00;;;24.30;80.70;;;;;;10474396;28;20222;-72
2022/09/01 09:09:09;;;;;;;4.37;2.50;;;24.10;81.10;;;;;;10468524;28;20218;-70
2022/09/01 09:14:26;;;;;;;3.43;2.17;;;25.20;76.90;;;;;;10472580;28;20266;-71
2022/09/01 09:19:32;;;;;;;3.37;2.03;;;25.30;76.00;;;;;;10471498;28;20241;-70
2022/09/01 09:24:49;;;;;;;2.70;2.10;;;26.40;71.90;;;;;;10473898;28;20223;-70
2022/09/01 09:29:53;;;;;;;7.07;2.10;;;28.50;64.50;;;;;;10479857;28;20672;-70
2022/09/01 09:34:53;;;;;;;3.17;2.17;;;30.70;55.80;;;;;;10487194;28;20216;-70
2022/09/01 09:40:19;;;;;;;2.80;1.90;;;29.70;55.70;;;;;;10478474;28;20289;-71
2022/09/01 09:45:45;;;;;;;4.03;2.30;;;29.40;57.60;;;;;;10468985;28;20230;-70
2022/09/01 09:50:46;;;;;;;5.97;2.10;;;28.50;56.90;;;;;;10461708;28;20289;-71
2022/09/01 09:56:01;;;;;;;6.83;2.13;;;27.50;59.90;;;;;;10476386;28;20264;-71
2022/09/01 10:01:14;;;;;;;2.73;2.30;;;29.30;56.40;;;;;;10463570;28;20234;-72
2022/09/01 10:06:29;;;;;;;8.17;2.53;;;31.20;52.00;;;;;;10475902;28;20257;-69
2022/09/01 10:11:29;;;;;;;3.27;2.07;;;30.10;52.70;;;;;;10474084;28;20684;-70
2022/09/01 10:16:37;;;;;;;5.17;2.20;;;28.70;54.30;;;;;;10466578;28;20244;-73
2022/09/01 10:21:41;;;;;;;3.63;2.00;;;28.50;55.50;;;;;;10474870;28;20751;-70
2022/09/01 10:26:46;;;;;;;4.93;2.53;;;28.00;55.90;;;;;;10472182;28;20223;-70
2022/09/01 10:31:53;;;;;;;4.80;2.30;;;28.00;56.20;;;;;;10475801;28;20234;-70
2022/09/01 10:36:54;;;;;;;3.07;2.07;;;28.40;55.10;;;;;;10469361;28;20305;-71
2022/09/01 10:42:06;;;;;;;3.70;2.27;;;30.50;50.60;;;;;;10468508;28;20697;-70
2022/09/01 10:47:32;;;;;;;3.90;2.30;;;30.70;49.70;;;;;;10455544;28;20229;-71
2022/09/01 10:52:41;;;;;;;3.57;2.10;;;31.80;47.70;;;;;;10470335;28;20283;-71
2022/09/01 10:58:04;;;;;;;4.90;1.70;;;33.80;44.50;;;;;;10474505;28;20760;-70
2022/09/01 11:03:10;;;;;;;3.10;1.83;;;34.30;40.10;;;;;;10462444;28;20223;-71
2022/09/01 11:08:40;;;;;;;2.40;1.73;;;34.80;40.00;;;;;;10473164;28;20238;-70
2022/09/01 11:13:48;;;;;;;2.20;2.00;;;32.90;41.50;;;;;;10473853;28;20223;-70
2022/09/01 11:18:52;;;;;;;2.80;1.80;;;29.90;46.70;;;;;;10468758;28;20223;-70
2022/09/01 11:24:30;;;;;;;4.40;1.57;;;28.30;50.50;;;;;;10473920;28;20630;-70
2022/09/01 11:29:53;;;;;;;2.47;1.80;;;27.10;50.10;;;;;;10469187;28;20223;-70
2022/09/01 11:34:56;;;;;;;3.70;2.00;;;26.60;52.40;;;;;;10466643;28;20226;-71
2022/09/01 11:40:02;;;;;;;3.57;2.00;;;26.30;53.80;;;;;;10476364;28;20704;-70
2022/09/01 11:45:17;;;;;;;2.90;2.10;;;26.80;53.50;;;;;;10461792;28;20226;-70
2022/09/01 11:50:31;;;;;;;3.73;1.83;;;27.30;52.20;;;;;;10472822;28;20765;-70
2022/09/01 11:55:38;;;;;;;3.13;1.60;;;26.80;52.60;;;;;;10470914;28;20691;-70
2022/09/01 12:00:41;;;;;;;3.87;2.00;;;26.80;53.10;;;;;;10471957;28;20226;-70
2022/09/01 12:05:42;;;;;;;2.33;1.70;;;26.40;52.60;;;;;;10481241;28;20229;-70
2022/09/01 12:10:44;;;;;;;7.33;1.93;;;26.20;53.00;;;;;;10476204;28;20248;-71
2022/09/01 12:16:03;;;;;;;2.53;2.00;;;26.10;53.80;;;;;;10476079;28;20225;-70
2022/09/01 12:21:07;;;;;;;2.37;1.70;;;26.20;53.70;;;;;;10477988;28;20728;-70
2022/09/01 12:26:14;;;;;;;3.67;1.80;;;26.20;53.20;;;;;;10481003;28;20285;-70
2022/09/01 12:31:21;;;;;;;1.70;1.60;;;26.20;52.40;;;;;;10476736;28;20216;-70
2022/09/01 12:36:30;;;;;;;3.50;1.60;;;26.10;52.10;;;;;;10475678;28;20224;-69
2022/09/01 12:41:33;;;;;;;1.90;1.60;;;26.10;53.20;;;;;;10477234;28;20262;-70
2022/09/01 12:46:42;;;;;;;3.17;1.97;;;26.00;53.50;;;;;;10478521;28;20228;-70
2022/09/01 12:51:46;;;;;;;1.77;1.67;;;25.90;52.90;;;;;;10475193;28;20239;-70
2022/09/01 12:56:49;;;;;;;2.33;1.83;;;26.00;52.20;;;;;;10477950;28;20225;-70
2022/09/01 13:01:51;;;;;;;1.97;1.73;;;26.00;52.60;;;;;;10472956;28;20265;-70
2022/09/01 13:06:53;;;;;;;3.07;1.70;;;25.90;53.00;;;;;;10480414;28;20662;-70
2022/09/01 13:12:16;;;;;;;2.70;2.10;;;25.50;53.20;;;;;;10470431;28;20220;-70
2022/09/01 13:17:18;;;;;;;2.43;2.00;;;25.40;53.70;;;;;;10475345;28;20230;-71
2022/09/01 13:22:18;;;;;;;4.03;1.97;;;25.30;54.00;;;;;;10473770;28;20227;-70
2022/09/01 13:27:20;;;;;;;2.43;1.57;;;25.20;53.20;;;;;;10476768;28;20224;-70
2022/09/01 13:32:22;;;;;;;2.87;1.63;;;25.40;53.70;;;;;;10473050;28;20228;-70
2022/09/01 13:37:25;;;;;;;2.23;1.67;;;25.40;53.60;;;;;;10474564;28;20299;-69
2022/09/01 13:42:26;;;;;;;3.20;1.67;;;25.40;53.40;;;;;;10474030;28;20710;-70
2022/09/01 13:47:27;;;;;;;5.17;2.00;;;25.30;52.50;;;;;;10475194;28;20223;-71
2022/09/01 13:52:28;;;;;;;1.97;1.80;;;25.30;52.50;;;;;;10474037;28;20229;-70
2022/09/01 13:57:29;;;;;;;4.23;2.20;;;25.40;52.70;;;;;;10474771;28;20640;-71
2022/09/01 14:02:30;;;;;;;4.00;1.63;;;25.70;52.80;;;;;;10474356;28;20231;-70
2022/09/01 14:07:31;;;;;;;5.77;1.83;;;26.00;52.00;;;;;;10466473;28;20223;-70
2022/09/01 14:12:31;;;;;;;3.73;1.80;;;26.00;51.90;;;;;;10473293;28;20232;-71
2022/09/01 14:17:33;;;;;;;2.57;1.73;;;25.80;51.20;;;;;;10463209;28;20213;-70
2022/09/01 14:22:34;;;;;;;5.93;2.10;;;25.80;51.80;;;;;;10474719;28;20572;-71
2022/09/01 14:27:35;;;;;;;4.30;1.93;;;25.70;51.50;;;;;;10471348;28;20219;-70
2022/09/01 14:32:42;;;;;;;4.00;1.67;;;25.40;51.20;;;;;;10474123;28;20260;-72
2022/09/01 14:37:44;;;;;;;3.07;1.70;;;25.20;51.60;;;;;;10471122;28;20219;-70
2022/09/01 14:42:47;;;;;;;2.10;1.90;;;25.10;51.90;;;;;;10474573;28;20240;-71
2022/09/01 14:47:52;;;;;;;2.90;1.70;;;25.30;51.40;;;;;;10470061;28;20259;-70
2022/09/01 14:52:55;;;;;;;3.00;2.00;;;25.40;51.40;;;;;;10468375;28;20239;-70
2022/09/01 14:57:56;;;;;;;3.80;1.70;;;25.40;50.90;;;;;;10475877;28;20242;-71
2022/09/01 15:02:57;;;;;;;1.73;1.63;;;25.40;51.30;;;;;;10468137;28;20236;-70
2022/09/01 15:07:58;;;;;;;2.50;1.90;;;25.20;52.30;;;;;;10450841;28;20592;-70
2022/09/01 15:13:00;;;;;;;3.03;1.80;;;25.30;51.60;;;;;;10475191;28;20221;-70
2022/09/01 15:18:01;;;;;;;1.83;1.73;;;25.40;52.10;;;;;;10469167;28;20651;-70
2022/09/01 15:23:02;;;;;;;1.80;1.60;;;25.40;52.10;;;;;;10476130;28;20235;-71
2022/09/01 15:28:03;;;;;;;1.70;1.60;;;25.20;51.90;;;;;;10466660;28;20219;-69
2022/09/01 15:33:05;;;;;;;1.90;1.70;;;25.10;51.50;;;;;;10472317;28;20215;-70
2022/09/01 15:38:06;;;;;;;2.60;1.63;;;25.10;51.00;;;;;;10481037;28;20308;-71
2022/09/01 15:43:07;;;;;;;2.20;2.00;;;25.10;50.90;;;;;;10476973;28;20302;-70
2022/09/01 15:48:08;;;;;;;4.47;1.73;;;25.00;49.30;;;;;;10482461;28;20270;-71
2022/09/01 15:53:12;;;;;;;3.67;1.77;;;24.90;50.40;;;;;;10477634;28;20252;-70
2022/09/01 15:58:15;;;;;;;2.53;1.83;;;24.90;51.00;;;;;;10481778;28;20692;-69
2022/09/01 16:03:16;;;;;;;2.80;1.80;;;24.90;50.90;;;;;;10477293;28;20247;-70
2022/09/01 16:08:18;;;;;;;3.60;1.60;;;24.90;51.40;;;;;;10479681;28;20251;-71
2022/09/01 16:13:19;;;;;;;4.97;1.70;;;24.90;51.60;;;;;;10474350;28;20678;-70
2022/09/01 16:18:40;;;;;;;2.67;1.50;;;24.80;51.80;;;;;;10474248;28;20215;-70
2022/09/01 16:23:50;;;;;;;2.20;1.80;;;24.70;52.10;;;;;;10475976;28;20215;-70
2022/09/01 16:28:55;;;;;;;3.13;1.80;;;24.60;52.30;;;;;;10474484;28;20224;-70
2022/09/01 16:34:00;;;;;;;4.20;1.70;;;24.50;51.90;;;;;;10482234;28;20215;-70
2022/09/01 16:39:13;;;;;;;1.73;1.60;;;24.30;51.80;;;;;;10466694;28;20231;-70
2022/09/01 16:44:33;;;;;;;3.37;2.13;;;24.20;51.80;;;;;;10478784;28;20298;-70
2022/09/01 16:49:46;;;;;;;4.13;2.20;;;24.20;52.60;;;;;;10476981;28;20223;-70
2022/09/01 16:54:58;;;;;;;2.97;2.00;;;24.10;53.20;;;;;;10465867;28;20223;-70
2022/09/01 17:00:03;;;;;;;3.20;2.07;;;24.10;53.20;;;;;;10455360;28;20224;-70
2022/09/01 17:05:23;;;;;;;2.33;1.83;;;24.00;53.10;;;;;;10480296;28;20212;-71
2022/09/01 17:10:40;;;;;;;3.67;1.93;;;23.90;52.90;;;;;;10476560;28;21408;-70
2022/09/01 17:15:42;;;;;;;1.60;1.50;;;23.90;53.20;;;;;;10474567;28;20222;-70
2022/09/01 17:20:48;;;;;;;2.90;1.87;;;23.80;53.40;;;;;;10478640;28;20292;-70
2022/09/01 17:25:54;;;;;;;3.53;1.73;;;23.70;53.80;;;;;;10480824;28;20211;-70
2022/09/01 17:31:08;;;;;;;6.23;1.60;;;23.60;54.10;;;;;;10475053;28;20324;-70
2022/09/01 17:36:19;;;;;;;3.93;1.90;;;23.40;54.40;;;;;;10456117;28;20223;-70
2022/09/01 17:41:54;;;;;;;3.63;1.87;;;23.30;54.70;;;;;;10474827;28;20234;-70
2022/09/01 17:47:16;;;;;;;1.87;1.63;;;23.20;54.80;;;;;;10486912;28;20331;-70
2022/09/01 17:52:26;;;;;;;3.67;1.67;;;23.10;55.20;;;;;;10467632;28;20311;-70
2022/09/01 17:57:26;;;;;;;2.40;1.60;;;22.90;55.60;;;;;;10474637;28;20213;-70
2022/09/01 18:02:51;;;;;;;2.97;1.80;;;22.80;56.20;;;;;;10474468;28;20293;-70
2022/09/01 18:08:14;;;;;;;5.43;2.30;;;22.60;56.60;;;;;;10469756;28;20239;-69
2022/09/01 18:13:24;;;;;;;4.17;1.70;;;22.50;56.70;;;;;;10466735;28;20699;-69
2022/09/01 18:18:35;;;;;;;5.77;1.90;;;22.40;57.00;;;;;;10472026;28;20257;-70
2022/09/01 18:23:39;;;;;;;6.03;2.03;;;22.30;57.40;;;;;;10470107;28;20619;-70
2022/09/01 18:28:40;;;;;;;4.13;2.30;;;22.30;57.90;;;;;;10469462;28;20216;-70
2022/09/01 18:34:18;;;;;;;4.47;2.40;;;22.10;58.30;;;;;;10473825;28;20214;-69
2022/09/01 18:39:50;;;;;;;5.20;3.30;;;22.00;58.90;;;;;;10466853;28;20260;-70
2022/09/01 18:45:04;;;;;;;7.10;2.80;;;21.90;59.60;;;;;;10469782;28;20269;-69
2022/09/01 18:50:21;;;;;;;4.33;2.50;;;21.70;60.70;;;;;;10462429;28;20231;-70
2022/09/01 18:55:39;;;;;;;4.50;2.40;;;21.60;61.40;;;;;;10473957;28;20255;-70
2022/09/01 19:00:56;;;;;;;5.40;2.73;;;21.40;62.60;;;;;;10471338;28;20227;-70
2022/09/01 19:06:29;;;;;;;3.90;2.93;;;21.40;62.90;;;;;;10475871;28;20655;-70
2022/09/01 19:11:59;;;;;;;5.60;2.73;;;21.40;63.30;;;;;;10467992;28;20260;-70
2022/09/01 19:16:59;;;;;;;7.43;2.73;;;21.30;63.70;;;;;;10460778;28;20239;-70
2022/09/01 19:22:00;;;;;;;6.93;3.00;;;21.30;63.80;;;;;;10475310;28;20751;-70
2022/09/01 19:27:14;;;;;;;6.20;3.23;;;21.30;63.90;;;;;;10468762;28;20296;-69
2022/09/01 19:32:17;;;;;;;8.97;4.23;;;21.40;63.90;;;;;;10474417;28;20242;-70
2022/09/01 19:37:21;;;;;;;6.87;3.50;;;21.40;64.10;;;;;;10468993;28;20215;-70
2022/09/01 19:42:31;;;;;;;4.10;2.50;;;21.40;64.20;;;;;;10472296;28;20236;-70
2022/09/01 19:47:40;;;;;;;3.57;2.50;;;21.40;64.40;;;;;;10473047;28;20223;-70
2022/09/01 19:52:59;;;;;;;8.83;2.97;;;21.40;64.60;;;;;;10470084;28;20316;-70
2022/09/01 19:58:17;;;;;;;5.43;3.00;;;21.40;65.00;;;;;;10459493;28;20711;-69
2022/09/01 20:03:39;;;;;;;6.93;2.90;;;21.30;65.30;;;;;;10472018;28;20686;-70
2022/09/01 20:08:46;;;;;;;8.03;3.00;;;21.20;65.80;;;;;;10475826;28;20314;-69
2022/09/01 20:14:22;;;;;;;4.60;2.70;;;21.20;66.10;;;;;;10467156;28;20752;-70
2022/09/01 20:19:54;;;;;;;4.83;2.40;;;21.10;66.60;;;;;;10461906;28;20231;-70
2022/09/01 20:25:07;;;;;;;7.00;2.70;;;21.00;67.10;;;;;;10480814;28;20231;-71
2022/09/01 20:30:18;;;;;;;4.93;2.77;;;20.90;67.50;;;;;;10450649;28;20222;-69
2022/09/01 20:35:31;;;;;;;5.77;2.57;;;20.80;68.00;;;;;;10474525;28;20270;-69
2022/09/01 20:40:39;;;;;;;4.33;2.70;;;20.80;68.40;;;;;;10482950;28;20369;-70
2022/09/01 20:45:41;;;;;;;3.00;2.50;;;20.70;69.00;;;;;;10475108;28;20227;-70
2022/09/01 20:50:41;;;;;;;5.30;2.63;;;20.60;69.20;;;;;;10474963;28;20238;-70
2022/09/01 20:55:54;;;;;;;3.90;1.90;;;20.50;69.60;;;;;;10474364;28;20211;-70
2022/09/01 21:01:09;;;;;;;2.30;2.10;;;20.50;69.60;;;;;;10481044;28;20251;-70
2022/09/01 21:07:03;;;;;;;3.43;2.20;;;20.40;69.70;;;;;;10468625;28;20223;-70
2022/09/01 21:12:27;;;;;;;5.27;2.60;;;20.30;69.80;;;;;;10479635;28;20223;-70
2022/09/01 21:17:56;;;;;;;4.40;2.47;;;20.30;70.00;;;;;;10475998;28;20683;-70
2022/09/01 21:22:56;;;;;;;2.10;1.90;;;20.20;70.40;;;;;;10480737;28;20306;-70
2022/09/01 21:27:59;;;;;;;6.13;2.20;;;20.20;70.80;;;;;;10474500;28;20804;-69
2022/09/01 21:33:00;;;;;;;6.97;2.43;;;20.10;71.20;;;;;;10463592;28;20222;-69
2022/09/01 21:38:01;;;;;;;3.80;2.70;;;20.10;71.40;;;;;;10472898;28;20231;-69
2022/09/01 21:43:11;;;;;;;7.60;2.60;;;20.10;71.70;;;;;;10471450;28;20273;-70
2022/09/01 21:48:11;;;;;;;6.07;2.63;;;20.00;72.70;;;;;;10478256;28;20282;-69
2022/09/01 21:53:13;;;;;;;4.70;2.63;;;19.90;72.70;;;;;;10473735;28;20239;-70
2022/09/01 21:58:13;;;;;;;4.33;2.77;;;19.80;73.30;;;;;;10476437;28;20219;-69
2022/09/01 22:03:14;;;;;;;4.43;2.70;;;19.60;73.70;;;;;;10469954;28;20222;-70
2022/09/01 22:08:16;;;;;;;3.67;2.50;;;19.50;74.40;;;;;;10472546;28;20767;-70
2022/09/01 22:13:18;;;;;;;3.77;2.30;;;19.40;74.60;;;;;;10476025;28;20256;-70
2022/09/01 22:18:20;;;;;;;3.73;2.23;;;19.10;75.20;;;;;;10473274;28;20582;-69
2022/09/01 22:23:20;;;;;;;2.47;2.27;;;18.80;75.90;;;;;;10474800;28;20241;-69
2022/09/01 22:28:21;;;;;;;4.63;2.27;;;18.70;76.80;;;;;;10472313;28;20237;-69
2022/09/01 22:33:22;;;;;;;4.67;2.50;;;18.60;77.30;;;;;;10470815;28;20233;-70
2022/09/01 22:38:22;;;;;;;3.53;2.10;;;18.60;77.60;;;;;;10474765;28;20312;-70
2022/09/01 22:43:25;;;;;;;3.00;1.93;;;18.50;78.00;;;;;;10469859;28;20292;-70
2022/09/01 22:48:27;;;;;;;2.77;2.30;;;18.40;78.30;;;;;;10473431;28;20701;-69
2022/09/01 22:53:28;;;;;;;2.60;2.20;;;18.40;78.50;;;;;;10473368;28;20609;-69
2022/09/01 22:58:29;;;;;;;4.40;2.47;;;18.30;78.90;;;;;;10472424;28;20221;-70
2022/09/01 23:03:29;;;;;;;2.00;1.90;;;18.30;79.30;;;;;;10472780;28;20713;-69
2022/09/01 23:08:30;;;;;;;4.80;2.20;;;18.20;79.80;;;;;;10472815;28;20396;-70
2022/09/01 23:13:31;;;;;;;5.50;2.20;;;18.10;80.30;;;;;;10472366;28;20222;-70
2022/09/01 23:18:34;;;;;;;3.40;2.00;;;18.00;80.80;;;;;;10471986;28;20221;-70
2022/09/01 23:23:35;;;;;;;3.77;2.20;;;17.90;81.40;;;;;;10472351;28;20221;-70
2022/09/01 23:28:37;;;;;;;5.13;2.03;;;17.80;81.80;;;;;;10471590;28;20245;-70
2022/09/01 23:33:37;;;;;;;2.53;2.20;;;17.80;82.20;;;;;;10473062;28;20225;-71
2022/09/01 23:38:40;;;;;;;4.07;2.37;;;17.70;82.60;;;;;;10476930;28;20225;-71
2022/09/01 23:43:41;;;;;;;3.37;2.00;;;17.70;83.00;;;;;;10470089;28;20587;-70
2022/09/01 23:48:41;;;;;;;2.10;1.90;;;17.60;83.20;;;;;;10472614;28;20281;-71
2022/09/01 23:53:42;;;;;;;2.87;2.10;;;17.50;83.60;;;;;;10468636;28;20250;-70
2022/09/01 23:58:44;;;;;;;2.37;2.07;;;17.50;84.00;;;;;;10472331;28;20250;-70
